Time;durP1;ratioP1;P1;durP2;ratioP2;P2;SDS_P1;SDS_P2;PMS_P1;PMS_P2;Temp;Humidity;BMP_temperature;BMP_pressure;BME280_temperature;BME280_humidity;BME280_pressure;Samples;Min_cycle;Max_cycle;Signal;HPM_P1;HPM_P2
2022/02/07 00:05:55;;;;;;;4.00;1.40;;;7.10;99.90;;;;;;5017076;28;20294;-77
2022/02/07 00:08:21;;;;;;;4.83;0.90;;;7.00;99.90;;;;;;5012507;28;20179;-77
2022/02/07 00:10:47;;;;;;;6.20;1.10;;;7.00;99.90;;;;;;5004465;28;20190;-77
2022/02/07 00:13:13;;;;;;;5.53;0.90;;;7.00;99.90;;;;;;5006817;28;20274;-77
2022/02/07 00:15:39;;;;;;;2.40;0.90;;;7.00;99.90;;;;;;5002977;28;20659;-77
2022/02/07 00:18:06;;;;;;;5.00;1.17;;;6.90;99.90;;;;;;5000245;28;20187;-76
2022/02/07 00:20:33;;;;;;;3.15;1.05;;;6.80;99.90;;;;;;5005113;28;20221;-77
2022/02/07 00:22:58;;;;;;;3.88;0.85;;;6.80;99.90;;;;;;5001771;28;20181;-76
2022/02/07 00:25:25;;;;;;;3.90;0.80;;;6.70;99.90;;;;;;5005089;28;20198;-77
2022/02/07 00:27:50;;;;;;;4.97;0.98;;;6.60;99.90;;;;;;5001797;28;20570;-76
2022/02/07 00:30:18;;;;;;;3.03;0.93;;;6.50;99.90;;;;;;5004837;28;20178;-77
2022/02/07 00:32:44;;;;;;;11.88;1.30;;;6.40;99.90;;;;;;4968222;28;20230;-77
2022/02/07 00:35:15;;;;;;;3.55;0.90;;;6.40;99.90;;;;;;5001646;28;20226;-77
2022/02/07 00:37:45;;;;;;;4.50;0.80;;;6.30;99.90;;;;;;5001325;28;20179;-77
2022/02/07 00:42:51;;;;;;;8.85;1.50;;;6.20;99.90;;;;;;4984773;28;20532;-77
2022/02/07 00:45:26;;;;;;;2.75;0.75;;;6.20;99.90;;;;;;5002686;28;20217;-76
2022/02/07 00:47:52;;;;;;;5.57;0.75;;;6.30;99.90;;;;;;5004936;28;20638;-76
2022/02/07 00:50:18;;;;;;;3.55;0.98;;;6.20;99.90;;;;;;4983796;28;20199;-77
2022/02/07 00:52:43;;;;;;;2.03;0.60;;;6.20;99.90;;;;;;4989884;28;20193;-78
2022/02/07 00:55:09;;;;;;;2.30;0.60;;;6.20;99.90;;;;;;4994539;28;20672;-77
2022/02/07 00:57:35;;;;;;;4.10;0.73;;;6.10;99.90;;;;;;4986919;28;20275;-77
2022/02/07 01:00:02;;;;;;;6.43;0.87;;;6.10;99.90;;;;;;4984066;28;20179;-76
2022/02/07 01:02:29;;;;;;;5.43;1.15;;;6.00;99.90;;;;;;4986924;28;21141;-76
2022/02/07 01:04:55;;;;;;;3.43;0.90;;;6.00;99.90;;;;;;5001821;28;20209;-77
2022/02/07 01:07:21;;;;;;;1.85;1.10;;;6.00;99.90;;;;;;4987220;28;20545;-77
2022/02/07 01:09:51;;;;;;;2.78;1.33;;;5.90;99.90;;;;;;5003377;28;20182;-76
2022/02/07 01:13:04;;;;;;;2.97;0.75;;;5.90;99.90;;;;;;4967819;28;20190;-77
2022/02/07 01:18:56;;;;;;;3.95;1.10;;;5.80;99.90;;;;;;4985224;28;20182;-76
2022/02/07 01:51:32;;;;;;;4.97;1.60;;;5.50;99.90;;;;;;4984235;28;20190;-77
2022/02/07 01:56:39;;;;;;;5.38;1.30;;;5.60;99.90;;;;;;4986621;28;20573;-78
2022/02/07 01:59:06;;;;;;;4.43;1.30;;;5.70;99.90;;;;;;4983839;28;20277;-78
2022/02/07 02:01:37;;;;;;;8.43;1.42;;;5.70;99.90;;;;;;4977883;28;20190;-77
2022/02/07 02:04:04;;;;;;;4.93;1.00;;;5.80;99.90;;;;;;4991387;28;20229;-77
2022/02/07 02:06:30;;;;;;;7.53;1.20;;;5.80;99.90;;;;;;4994715;28;20206;-78
2022/02/07 02:09:02;;;;;;;5.38;1.83;;;5.80;99.90;;;;;;4987441;28;20221;-78
2022/02/07 02:11:35;;;;;;;6.38;0.90;;;5.90;99.90;;;;;;4999971;28;20178;-78
2022/02/07 02:17:20;;;;;;;7.63;2.00;;;5.90;99.90;;;;;;4984803;28;20214;-78
2022/02/07 02:20:28;;;;;;;7.25;1.05;;;6.00;99.90;;;;;;4993997;28;20541;-78
2022/02/07 02:47:29;;;;;;;5.10;1.15;;;6.20;99.90;;;;;;4982707;28;20190;-77
2022/02/07 02:50:07;;;;;;;4.20;1.00;;;6.20;99.90;;;;;;4990095;28;20185;-77
2022/02/07 02:52:35;;;;;;;8.02;1.20;;;6.20;99.90;;;;;;4977363;28;20540;-77
2022/02/07 02:55:01;;;;;;;9.00;1.17;;;6.20;99.90;;;;;;5000076;28;20202;-77
2022/02/07 02:57:27;;;;;;;7.20;2.07;;;6.10;99.90;;;;;;5003004;28;20166;-77
2022/02/07 02:59:53;;;;;;;8.40;1.40;;;6.10;99.90;;;;;;4982201;28;20175;-77
2022/02/07 03:02:19;;;;;;;5.72;0.85;;;6.00;99.90;;;;;;4987797;28;20697;-77
2022/02/07 03:04:46;;;;;;;8.48;1.30;;;5.90;99.90;;;;;;4986531;28;20654;-77
2022/02/07 03:07:12;;;;;;;5.77;1.00;;;5.90;99.90;;;;;;5005636;28;20237;-77
2022/02/07 03:09:46;;;;;;;4.53;0.93;;;5.80;99.90;;;;;;4993968;28;20577;-77
2022/02/07 03:12:14;;;;;;;6.30;0.90;;;5.70;99.90;;;;;;4971746;28;20190;-77
2022/02/07 03:14:44;;;;;;;3.25;1.00;;;5.70;99.90;;;;;;4985825;28;20210;-77
2022/02/07 03:17:12;;;;;;;8.02;0.90;;;5.70;99.90;;;;;;4988257;28;20249;-77
2022/02/07 03:19:38;;;;;;;5.22;0.75;;;5.60;99.90;;;;;;5007352;28;20179;-77
2022/02/07 03:22:04;;;;;;;4.90;0.97;;;5.60;99.90;;;;;;4981034;28;20716;-77
2022/02/07 03:24:30;;;;;;;2.30;1.40;;;5.50;99.90;;;;;;4997922;28;20627;-77
2022/02/07 03:27:14;;;;;;;3.00;0.70;;;5.50;99.90;;;;;;5003515;28;20760;-77
2022/02/07 03:29:47;;;;;;;3.55;0.80;;;5.50;99.90;;;;;;4987170;28;20190;-77
2022/02/07 03:32:16;;;;;;;5.43;0.77;;;5.50;99.90;;;;;;4987818;28;20597;-77
2022/02/07 03:34:50;;;;;;;5.43;0.90;;;5.40;99.90;;;;;;4988005;28;20210;-78
2022/02/07 03:37:18;;;;;;;5.38;0.80;;;5.40;99.90;;;;;;4986232;28;20190;-77
2022/02/07 03:39:44;;;;;;;4.25;0.70;;;5.40;99.90;;;;;;4987816;28;20585;-78
2022/02/07 03:42:12;;;;;;;5.03;0.90;;;5.40;99.90;;;;;;4989296;28;20540;-77
2022/02/07 03:44:42;;;;;;;4.30;1.30;;;5.30;99.90;;;;;;4996669;28;20170;-77
2022/02/07 03:47:08;;;;;;;3.73;0.60;;;5.30;99.90;;;;;;4977450;28;20174;-77
2022/02/07 03:49:33;;;;;;;3.00;0.80;;;5.30;99.90;;;;;;4973212;28;20190;-77
2022/02/07 03:51:59;;;;;;;2.97;0.63;;;5.30;99.90;;;;;;4993871;28;20178;-78
2022/02/07 03:54:25;;;;;;;4.40;1.00;;;5.30;99.90;;;;;;4987859;28;20197;-77
2022/02/07 03:56:55;;;;;;;3.17;0.73;;;5.30;99.90;;;;;;4989040;28;20182;-78
2022/02/07 03:59:21;;;;;;;3.08;0.80;;;5.30;99.90;;;;;;5000814;28;20175;-77
2022/02/07 04:01:48;;;;;;;5.30;0.93;;;5.40;99.90;;;;;;4993269;28;20174;-77
2022/02/07 04:04:18;;;;;;;8.18;1.88;;;5.40;99.90;;;;;;4988804;28;20183;-78
2022/02/07 04:06:47;;;;;;;5.65;0.90;;;5.40;99.90;;;;;;4976324;28;20682;-78
2022/02/07 04:09:25;;;;;;;9.13;0.90;;;5.40;99.90;;;;;;4997192;28;20253;-78
2022/02/07 04:12:00;;;;;;;4.03;0.98;;;5.40;99.90;;;;;;4984494;28;20183;-77
2022/02/07 04:14:28;;;;;;;3.45;0.80;;;5.40;99.90;;;;;;4990680;28;20177;-77
2022/02/07 04:17:00;;;;;;;5.70;1.27;;;5.40;99.90;;;;;;4991779;28;20635;-77
2022/02/07 04:19:35;;;;;;;5.90;0.80;;;5.50;99.90;;;;;;4995374;28;20561;-77
2022/02/07 04:22:06;;;;;;;5.15;1.00;;;5.50;99.90;;;;;;4988593;28;20177;-77
2022/02/07 04:24:42;;;;;;;4.57;1.08;;;5.50;99.90;;;;;;4995656;28;20190;-77
2022/02/07 04:27:11;;;;;;;3.72;0.80;;;5.60;99.90;;;;;;4996112;28;20565;-77
2022/02/07 04:29:38;;;;;;;6.82;1.05;;;5.60;99.90;;;;;;4992882;28;20202;-78
2022/02/07 04:32:05;;;;;;;5.07;1.27;;;5.70;99.90;;;;;;4996163;28;20186;-77
2022/02/07 04:34:32;;;;;;;3.28;0.90;;;5.70;99.90;;;;;;4968671;28;20257;-78
2022/02/07 04:36:58;;;;;;;4.80;1.33;;;5.70;99.90;;;;;;5010930;28;20241;-78
2022/02/07 04:39:25;;;;;;;5.30;1.67;;;5.80;99.90;;;;;;4984710;28;20690;-77
2022/02/07 04:41:56;;;;;;;6.65;1.00;;;5.80;99.90;;;;;;4995713;28;20867;-77
2022/02/07 04:44:34;;;;;;;7.97;1.00;;;5.80;99.90;;;;;;4972169;28;20175;-77
2022/02/07 04:52:42;;;;;;;5.80;1.23;;;5.70;99.90;;;;;;5004126;28;20225;-77
2022/02/07 04:58:02;;;;;;;9.82;0.90;;;5.60;99.90;;;;;;4970132;28;20231;-77
2022/02/07 05:00:38;;;;;;;4.50;1.38;;;5.60;99.90;;;;;;4975608;28;20288;-77
2022/02/07 05:03:16;;;;;;;4.43;1.00;;;5.60;99.90;;;;;;4969831;28;20185;-77
2022/02/07 05:16:21;;;;;;;2.92;0.90;;;5.70;99.90;;;;;;4989348;28;20293;-77
2022/02/07 05:18:50;;;;;;;5.90;1.25;;;5.70;99.90;;;;;;5011542;28;20177;-78
2022/02/07 05:21:37;;;;;;;10.88;2.20;;;5.70;99.90;;;;;;4992308;28;20508;-77
2022/02/07 05:24:11;;;;;;;5.60;0.93;;;5.70;99.90;;;;;;5003879;28;20178;-77
2022/02/07 05:26:55;;;;;;;5.80;1.23;;;5.70;99.90;;;;;;5019541;28;20644;-77
2022/02/07 05:29:34;;;;;;;3.55;1.10;;;5.80;99.90;;;;;;4971410;28;20174;-78
2022/02/07 05:32:19;;;;;;;8.00;1.10;;;5.80;99.90;;;;;;5001028;28;20185;-77
2022/02/07 05:34:55;;;;;;;4.63;1.15;;;5.90;99.90;;;;;;4975107;28;20240;-77
2022/02/07 05:37:44;;;;;;;5.55;1.00;;;5.90;99.90;;;;;;4987508;28;20199;-78
2022/02/07 05:40:38;;;;;;;5.03;1.10;;;6.00;99.90;;;;;;4983383;28;20185;-77
2022/02/07 05:43:24;;;;;;;7.00;1.17;;;6.00;99.90;;;;;;5004012;28;20193;-78
2022/02/07 05:46:20;;;;;;;6.85;1.20;;;6.10;99.90;;;;;;4995313;28;20378;-78
2022/02/07 05:49:08;;;;;;;5.70;1.30;;;6.20;99.90;;;;;;4994808;28;20528;-78
2022/02/07 05:51:54;;;;;;;9.52;1.92;;;6.20;99.90;;;;;;4985059;28;20230;-78
2022/02/07 05:54:49;;;;;;;8.23;1.65;;;6.20;99.90;;;;;;4986743;28;20206;-77
2022/02/07 05:57:34;;;;;;;7.03;1.27;;;6.20;99.90;;;;;;4967487;28;20189;-77
2022/02/07 06:00:20;;;;;;;6.38;1.52;;;6.30;99.90;;;;;;5002852;28;20198;-77
2022/02/07 06:02:46;;;;;;;8.60;1.37;;;6.30;99.90;;;;;;5004016;28;20178;-77
2022/02/07 06:05:35;;;;;;;7.05;1.40;;;6.40;99.90;;;;;;4997600;28;20241;-77
2022/02/07 06:08:07;;;;;;;8.35;2.35;;;6.40;99.90;;;;;;4985267;28;20612;-78
2022/02/07 06:10:33;;;;;;;6.57;1.37;;;6.40;99.90;;;;;;4991779;28;20269;-77
2022/02/07 06:12:59;;;;;;;9.82;1.83;;;6.40;99.90;;;;;;4976605;28;20189;-76
2022/02/07 06:15:26;;;;;;;6.13;1.75;;;6.40;99.90;;;;;;4983843;28;20619;-77
2022/02/07 06:17:57;;;;;;;4.60;0.95;;;6.50;99.90;;;;;;4968642;28;20174;-77
2022/02/07 06:20:25;;;;;;;8.75;1.33;;;6.50;99.90;;;;;;4992478;28;20194;-77
2022/02/07 06:22:51;;;;;;;6.43;1.60;;;6.60;99.90;;;;;;4992134;28;20213;-77
2022/02/07 06:25:18;;;;;;;8.80;1.25;;;6.60;99.90;;;;;;4984043;28;20290;-77
2022/02/07 06:27:46;;;;;;;7.50;1.50;;;6.60;99.90;;;;;;4986396;28;20183;-77
2022/02/07 06:30:16;;;;;;;11.35;1.20;;;6.60;99.90;;;;;;4982013;28;20222;-77
2022/02/07 06:32:42;;;;;;;7.60;1.38;;;6.60;99.90;;;;;;5001154;28;20221;-77
2022/02/07 06:35:09;;;;;;;5.57;2.15;;;6.70;99.90;;;;;;4966892;28;20210;-77
2022/02/07 06:37:37;;;;;;;9.90;1.80;;;6.70;99.90;;;;;;4990000;28;20198;-76
2022/02/07 06:40:05;;;;;;;9.73;1.73;;;6.70;99.90;;;;;;4989540;28;20209;-77
2022/02/07 06:42:31;;;;;;;7.20;2.80;;;6.70;99.90;;;;;;4994628;28;20178;-77
2022/02/07 06:44:58;;;;;;;9.48;1.40;;;6.70;99.90;;;;;;4997585;28;20210;-76
2022/02/07 06:47:24;;;;;;;6.00;1.50;;;6.70;99.90;;;;;;4994558;28;20178;-75
2022/02/07 06:49:51;;;;;;;7.05;1.38;;;6.70;99.90;;;;;;4989059;28;20218;-76
2022/02/07 06:52:17;;;;;;;12.50;2.00;;;6.70;99.90;;;;;;4986982;28;20191;-76
2022/02/07 06:54:47;;;;;;;8.60;2.35;;;6.80;99.90;;;;;;4988790;28;20217;-76
2022/02/07 06:57:19;;;;;;;8.82;2.65;;;6.80;99.90;;;;;;4994388;28;21071;-76
2022/02/07 06:59:47;;;;;;;5.07;1.75;;;6.70;99.90;;;;;;4982826;28;20217;-76
2022/02/07 07:02:15;;;;;;;7.63;1.90;;;6.80;99.90;;;;;;4990569;28;20138;-77
2022/02/07 07:04:42;;;;;;;10.52;2.05;;;6.80;99.90;;;;;;4989323;28;20684;-77
2022/02/07 07:07:08;;;;;;;13.05;2.42;;;6.90;99.90;;;;;;4981070;28;20194;-77
2022/02/07 07:09:35;;;;;;;6.80;1.77;;;6.90;99.90;;;;;;5003612;28;20244;-77
2022/02/07 07:12:05;;;;;;;7.57;2.28;;;6.90;99.90;;;;;;4970104;28;20189;-77
2022/02/07 07:17:06;;;;;;;10.80;2.25;;;7.00;99.90;;;;;;4987584;28;20189;-77
2022/02/07 07:19:39;;;;;;;11.05;2.05;;;7.00;99.90;;;;;;4972961;28;20186;-78
2022/02/07 07:22:06;;;;;;;8.45;1.80;;;7.00;99.90;;;;;;4989675;28;20555;-77
2022/02/07 07:24:36;;;;;;;6.95;1.63;;;7.00;99.90;;;;;;4986616;28;20181;-77
2022/02/07 07:27:03;;;;;;;6.45;1.60;;;7.00;99.90;;;;;;4981146;28;20508;-78
2022/02/07 07:29:35;;;;;;;9.20;1.35;;;7.00;99.90;;;;;;4985994;28;20180;-78
2022/02/07 07:32:06;;;;;;;7.90;1.85;;;7.10;99.90;;;;;;4989047;28;20674;-78
2022/02/07 07:34:34;;;;;;;5.25;1.20;;;7.10;99.90;;;;;;4995202;28;20213;-78
2022/02/07 07:37:29;;;;;;;12.73;1.40;;;7.10;99.90;;;;;;4983156;28;20213;-78
2022/02/07 07:39:56;;;;;;;7.18;1.40;;;7.10;99.90;;;;;;4988332;28;20182;-78
2022/02/07 07:42:25;;;;;;;5.40;1.45;;;7.20;99.90;;;;;;4973656;28;20669;-78
2022/02/07 07:45:08;;;;;;;6.70;1.60;;;7.20;99.90;;;;;;5002567;28;20222;-78
2022/02/07 07:48:13;;;;;;;8.10;1.85;;;7.20;99.90;;;;;;4998970;28;20186;-78
2022/02/07 07:51:22;;;;;;;10.30;2.00;;;7.20;99.90;;;;;;4960409;28;20191;-79
2022/02/07 08:02:24;;;;;;;10.20;1.70;;;7.50;99.90;;;;;;4993201;28;20182;-78
2022/02/07 08:04:51;;;;;;;9.57;2.45;;;7.60;99.90;;;;;;5005417;28;20603;-78
2022/02/07 08:12:29;;;;;;;5.57;1.65;;;7.80;99.90;;;;;;4973423;28;20262;-77
2022/02/07 08:14:56;;;;;;;6.80;1.95;;;7.80;99.90;;;;;;4989761;28;20215;-76
2022/02/07 08:17:23;;;;;;;4.60;1.07;;;7.90;99.90;;;;;;5011518;28;20542;-77
2022/02/07 08:19:49;;;;;;;7.38;1.40;;;7.90;99.90;;;;;;5003901;28;20179;-78
2022/02/07 08:22:15;;;;;;;7.40;1.63;;;8.00;99.90;;;;;;4988693;28;20175;-78
2022/02/07 08:24:43;;;;;;;7.63;1.88;;;8.10;99.90;;;;;;5008182;28;20197;-79
2022/02/07 08:27:09;;;;;;;7.13;1.42;;;8.10;99.90;;;;;;5006420;28;20178;-78
2022/02/07 08:29:35;;;;;;;7.35;1.88;;;8.10;99.90;;;;;;5005971;28;20639;-79
2022/02/07 08:32:01;;;;;;;6.57;1.60;;;8.20;99.90;;;;;;5005170;28;20178;-79
2022/02/07 08:34:27;;;;;;;7.53;2.38;;;8.20;99.90;;;;;;4972219;28;20183;-78
2022/02/07 08:36:53;;;;;;;10.27;2.03;;;8.20;99.90;;;;;;4989707;28;20269;-77
2022/02/07 08:39:19;;;;;;;7.13;2.10;;;8.20;99.90;;;;;;5005149;28;21001;-78
2022/02/07 08:41:45;;;;;;;7.93;1.80;;;8.20;99.90;;;;;;5011542;28;20309;-78
2022/02/07 08:44:11;;;;;;;7.00;2.00;;;8.20;99.90;;;;;;5006057;28;20178;-78
2022/02/07 08:46:36;;;;;;;8.10;1.60;;;8.20;99.90;;;;;;5004689;28;20684;-79
2022/02/07 08:49:03;;;;;;;5.87;1.80;;;8.20;99.90;;;;;;5004855;28;20174;-79
2022/02/07 08:51:32;;;;;;;6.68;1.95;;;8.10;99.90;;;;;;5003009;28;20601;-79
2022/02/07 08:54:04;;;;;;;10.60;2.55;;;8.20;99.90;;;;;;5006115;28;20238;-80
2022/02/07 08:56:50;;;;;;;6.95;1.55;;;8.20;99.90;;;;;;5010104;28;20858;-80
2022/02/07 08:59:17;;;;;;;9.23;1.98;;;8.20;99.90;;;;;;5004747;28;20178;-79
2022/02/07 09:01:49;;;;;;;11.13;2.20;;;8.30;99.90;;;;;;4993311;28;20182;-79
2022/02/07 09:07:06;;;;;;;12.40;2.47;;;8.30;99.90;;;;;;4986275;28;20186;-80
2022/02/07 09:09:32;;;;;;;9.02;2.35;;;8.40;99.90;;;;;;5005876;28;20186;-80
2022/02/07 09:11:58;;;;;;;12.20;2.57;;;8.50;99.90;;;;;;4970677;28;20172;-79
2022/02/07 09:14:25;;;;;;;9.50;1.67;;;8.40;99.90;;;;;;5004452;28;20589;-79
2022/02/07 09:16:53;;;;;;;7.35;1.77;;;8.50;99.90;;;;;;5003564;28;20611;-79
2022/02/07 09:19:20;;;;;;;6.40;1.75;;;8.50;99.90;;;;;;5002872;28;20193;-80
2022/02/07 09:21:49;;;;;;;11.80;2.20;;;8.70;99.90;;;;;;5002669;28;20171;-79
2022/02/07 09:24:15;;;;;;;11.68;2.58;;;8.80;99.90;;;;;;5005777;28;20533;-78
2022/02/07 09:26:42;;;;;;;14.52;2.72;;;9.00;99.90;;;;;;4972634;28;20302;-79
2022/02/07 09:29:08;;;;;;;14.70;2.80;;;9.10;99.90;;;;;;4996182;28;20194;-80
2022/02/07 09:31:34;;;;;;;10.97;2.50;;;9.30;99.90;;;;;;5005759;28;20217;-79
2022/02/07 09:34:00;;;;;;;9.55;2.80;;;9.30;99.90;;;;;;4999657;28;20635;-80
2022/02/07 09:36:26;;;;;;;6.80;1.70;;;9.40;99.90;;;;;;5006651;28;20805;-81
2022/02/07 09:38:53;;;;;;;5.90;1.80;;;9.40;99.90;;;;;;4992390;28;20181;-78
2022/02/07 09:41:21;;;;;;;7.63;2.50;;;9.40;99.90;;;;;;5005351;28;20188;-78
2022/02/07 09:43:50;;;;;;;9.32;2.20;;;9.50;99.90;;;;;;4993764;28;20183;-79
2022/02/07 09:46:21;;;;;;;10.10;3.13;;;9.50;99.90;;;;;;5005128;28;20301;-79
2022/02/07 09:48:51;;;;;;;7.22;1.95;;;9.60;99.90;;;;;;4993000;28;20174;-80
2022/02/07 09:51:17;;;;;;;8.25;2.55;;;9.70;99.90;;;;;;4996385;28;20182;-78
2022/02/07 09:53:43;;;;;;;6.03;1.90;;;9.80;99.90;;;;;;4966977;28;20177;-78
2022/02/07 09:56:11;;;;;;;11.95;2.42;;;9.90;99.90;;;;;;5009243;28;21411;-78
2022/02/07 09:58:39;;;;;;;9.15;1.70;;;10.00;99.90;;;;;;4996382;28;20591;-79
2022/02/07 10:01:08;;;;;;;7.47;2.13;;;10.40;99.90;;;;;;5005258;28;20205;-80
2022/02/07 10:03:57;;;;;;;12.25;2.60;;;11.10;99.90;;;;;;5007893;28;20544;-79
2022/02/07 10:09:25;;;;;;;7.57;2.40;;;12.70;99.90;;;;;;4992782;28;20585;-80
2022/02/07 10:12:23;;;;;;;9.57;3.03;;;13.30;99.90;;;;;;4981362;28;20979;-80
2022/02/07 10:15:10;;;;;;;6.50;2.33;;;14.10;99.90;;;;;;5005591;28;20640;-80
2022/02/07 10:18:08;;;;;;;12.03;3.33;;;14.70;99.90;;;;;;4990856;28;21164;-79
2022/02/07 10:21:19;;;;;;;9.87;2.40;;;15.30;99.90;;;;;;5008242;28;20601;-80
2022/02/07 10:40:34;;;;;;;6.83;1.53;;;16.00;99.90;;;;;;5000508;28;21218;-78
2022/02/07 10:43:31;;;;;;;6.60;1.63;;;16.00;99.90;;;;;;4999449;28;21013;-80
2022/02/07 10:46:08;;;;;;;10.87;3.37;;;16.10;99.90;;;;;;5002203;28;20684;-79
2022/02/07 10:48:48;;;;;;;10.63;2.83;;;16.00;99.90;;;;;;4990454;28;20585;-78
2022/02/07 10:51:31;;;;;;;10.53;3.60;;;15.90;99.90;;;;;;5003471;28;20590;-78
2022/02/07 10:54:05;;;;;;;10.27;2.27;;;15.60;99.90;;;;;;5000585;28;20627;-78
2022/02/07 10:56:39;;;;;;;9.30;3.27;;;15.20;99.90;;;;;;5005449;28;20662;-79
2022/02/07 10:59:07;;;;;;;8.17;2.00;;;14.80;99.90;;;;;;5005491;28;20597;-78
2022/02/07 11:04:20;;;;;;;9.73;1.87;;;14.10;99.90;;;;;;5005577;28;20686;-78
2022/02/07 11:06:50;;;;;;;8.13;2.23;;;13.80;99.90;;;;;;5012626;28;20950;-78
2022/02/07 11:11:57;;;;;;;10.03;2.60;;;13.20;99.90;;;;;;5002025;28;20708;-77
2022/02/07 11:22:23;;;;;;;6.25;2.10;;;12.30;99.90;;;;;;5000896;28;20182;-78
2022/02/07 11:27:28;;;;;;;11.65;3.63;;;12.00;99.90;;;;;;5009329;28;20191;-77
2022/02/07 11:29:54;;;;;;;11.40;2.72;;;11.70;99.90;;;;;;5002966;28;20483;-77
2022/02/07 11:32:45;;;;;;;7.90;2.42;;;11.60;99.90;;;;;;4992268;28;20530;-78
2022/02/07 11:35:10;;;;;;;6.60;2.35;;;11.50;99.90;;;;;;5002043;28;20218;-77
2022/02/07 11:37:37;;;;;;;9.73;2.20;;;11.50;99.90;;;;;;5011661;28;20171;-77
2022/02/07 11:40:29;;;;;;;6.05;1.80;;;11.50;99.90;;;;;;5000806;28;20222;-77
2022/02/07 11:43:16;;;;;;;11.43;2.60;;;11.50;99.90;;;;;;4987767;28;20617;-77
2022/02/07 11:45:49;;;;;;;7.70;2.47;;;11.50;99.90;;;;;;4988860;28;20213;-77
2022/02/07 11:48:17;;;;;;;8.45;2.75;;;11.40;99.90;;;;;;5013461;28;20185;-79
2022/02/07 11:50:44;;;;;;;14.00;3.40;;;11.40;99.90;;;;;;5002343;28;20179;-78
2022/02/07 11:53:11;;;;;;;6.00;2.42;;;11.30;99.90;;;;;;5005255;28;20270;-77
2022/02/07 11:55:47;;;;;;;9.93;3.58;;;11.30;99.90;;;;;;5006528;28;20210;-77
2022/02/07 11:58:22;;;;;;;10.38;3.50;;;11.30;99.90;;;;;;4971177;28;20262;-77
2022/02/07 12:00:56;;;;;;;7.75;2.55;;;11.30;99.90;;;;;;4996875;28;20177;-77
2022/02/07 12:03:23;;;;;;;9.68;2.38;;;11.30;99.90;;;;;;5003229;28;20647;-77
2022/02/07 12:05:56;;;;;;;9.35;2.25;;;11.20;99.90;;;;;;5009176;28;20226;-77
2022/02/07 12:08:25;;;;;;;14.15;3.35;;;11.10;99.90;;;;;;5014004;28;20803;-77
2022/02/07 12:11:03;;;;;;;19.13;3.50;;;11.10;99.90;;;;;;5002762;28;20552;-77
2022/02/07 12:13:32;;;;;;;16.60;3.70;;;11.00;99.90;;;;;;5014875;28;20181;-76
2022/02/07 12:16:06;;;;;;;6.28;2.58;;;11.00;99.90;;;;;;5010188;28;20229;-77
2022/02/07 12:18:32;;;;;;;9.70;3.35;;;11.00;99.90;;;;;;5011024;28;20170;-76
2022/02/07 12:21:16;;;;;;;17.37;3.50;;;11.10;99.90;;;;;;5007401;28;20186;-77
2022/02/07 12:23:43;;;;;;;12.00;3.58;;;11.00;99.90;;;;;;5006258;28;20628;-77
2022/02/07 12:26:14;;;;;;;5.97;1.75;;;11.00;99.90;;;;;;5009352;28;20624;-77
2022/02/07 12:28:45;;;;;;;8.18;2.53;;;10.90;99.90;;;;;;5010909;28;20542;-78
2022/02/07 12:31:21;;;;;;;11.70;2.40;;;10.90;99.90;;;;;;5003082;28;20179;-78
2022/02/07 12:34:15;;;;;;;11.50;2.90;;;10.80;99.90;;;;;;5002092;28;20342;-78
2022/02/07 12:36:41;;;;;;;6.28;2.35;;;10.70;99.90;;;;;;5003095;28;20210;-79
2022/02/07 12:39:15;;;;;;;8.00;3.28;;;10.60;99.90;;;;;;5009946;28;20262;-78
2022/02/07 12:41:41;;;;;;;6.80;2.63;;;10.60;99.90;;;;;;4984775;28;20183;-79
2022/02/07 12:44:09;;;;;;;9.82;3.45;;;10.50;99.90;;;;;;4984667;28;20674;-79
2022/02/07 12:46:36;;;;;;;11.65;3.53;;;10.50;99.90;;;;;;4971067;28;20246;-78
2022/02/07 12:49:09;;;;;;;11.13;3.83;;;10.40;99.90;;;;;;4968424;28;20175;-78
2022/02/07 12:51:42;;;;;;;6.97;3.05;;;10.40;99.90;;;;;;5005733;28;20244;-78
2022/02/07 12:54:13;;;;;;;9.40;3.80;;;10.40;99.90;;;;;;4994345;28;20182;-79
2022/02/07 12:56:40;;;;;;;10.85;3.28;;;10.40;99.90;;;;;;5003301;28;20214;-78
2022/02/07 12:59:07;;;;;;;16.95;4.90;;;10.50;99.90;;;;;;5004489;28;20205;-78
2022/02/07 13:01:40;;;;;;;9.35;2.90;;;10.50;99.90;;;;;;4998286;28;20190;-78
2022/02/07 13:04:13;;;;;;;8.23;3.28;;;10.40;99.90;;;;;;5005780;28;20170;-79
2022/02/07 13:06:44;;;;;;;5.18;2.85;;;10.40;99.90;;;;;;5004734;28;20262;-78
2022/02/07 13:09:30;;;;;;;5.93;3.28;;;10.40;99.90;;;;;;4990725;28;20186;-78
2022/02/07 13:12:13;;;;;;;9.80;4.10;;;10.50;99.90;;;;;;5004189;28;20831;-77
2022/02/07 13:14:57;;;;;;;11.85;4.45;;;10.50;99.90;;;;;;5006946;28;20260;-77
2022/02/07 13:17:27;;;;;;;9.80;4.38;;;10.50;99.90;;;;;;5006004;28;20183;-78
2022/02/07 13:19:54;;;;;;;7.03;3.33;;;10.60;99.90;;;;;;4987451;28;20840;-78
2022/02/07 13:22:22;;;;;;;8.65;3.63;;;10.70;99.90;;;;;;5015254;28;20205;-81
2022/02/07 13:24:50;;;;;;;8.57;3.50;;;10.70;99.90;;;;;;5004805;28;20261;-79
2022/02/07 13:27:17;;;;;;;8.00;3.35;;;10.80;99.90;;;;;;4992072;28;20182;-79
2022/02/07 13:29:46;;;;;;;12.63;4.85;;;10.80;99.90;;;;;;5009301;28;20205;-79
2022/02/07 13:32:19;;;;;;;6.10;3.30;;;10.80;99.90;;;;;;5007896;28;20571;-78
2022/02/07 13:34:47;;;;;;;9.57;4.00;;;10.90;99.90;;;;;;5003397;28;20183;-78
2022/02/07 13:37:16;;;;;;;4.20;2.53;;;10.90;99.90;;;;;;4985104;28;20261;-77
2022/02/07 13:40:05;;;;;;;10.10;3.13;;;11.00;99.90;;;;;;5002762;28;20183;-77
2022/02/07 13:42:37;;;;;;;8.90;2.50;;;11.10;99.90;;;;;;5002819;28;20171;-79
2022/02/07 13:45:18;;;;;;;6.57;3.00;;;11.10;99.90;;;;;;4984280;28;20230;-78
2022/02/07 13:47:48;;;;;;;5.03;1.95;;;11.10;99.90;;;;;;5001243;28;20277;-78
2022/02/07 13:50:17;;;;;;;3.70;2.03;;;11.10;99.90;;;;;;4983892;28;20237;-79
2022/02/07 13:52:45;;;;;;;6.53;2.67;;;11.00;99.90;;;;;;5000109;28;20186;-78
2022/02/07 13:55:13;;;;;;;6.68;1.70;;;11.10;99.90;;;;;;5003323;28;20206;-80
2022/02/07 13:57:58;;;;;;;6.35;1.45;;;11.10;99.90;;;;;;4985631;28;20177;-78
2022/02/07 14:00:35;;;;;;;7.18;1.92;;;11.10;99.90;;;;;;5004768;28;20170;-79
2022/02/07 14:03:13;;;;;;;5.57;2.78;;;11.10;99.90;;;;;;5002699;28;20242;-79
2022/02/07 14:06:06;;;;;;;9.52;2.03;;;11.10;99.90;;;;;;5000487;28;20954;-78
2022/02/07 14:08:44;;;;;;;6.47;2.45;;;11.10;99.90;;;;;;5000285;28;20535;-78
2022/02/07 14:11:13;;;;;;;11.18;2.53;;;11.10;99.90;;;;;;4987384;28;20189;-79
2022/02/07 14:13:42;;;;;;;5.80;1.80;;;11.10;99.90;;;;;;4999466;28;20198;-80
2022/02/07 14:16:10;;;;;;;6.28;2.05;;;11.10;99.90;;;;;;5000810;28;20257;-80
2022/02/07 14:18:38;;;;;;;9.85;1.63;;;11.10;99.90;;;;;;5003929;28;20549;-79
2022/02/07 14:21:11;;;;;;;5.70;1.95;;;11.10;99.90;;;;;;4992084;28;20175;-80
2022/02/07 14:23:42;;;;;;;7.00;1.75;;;11.00;99.90;;;;;;4992489;28;20514;-79
2022/02/07 14:26:11;;;;;;;5.05;2.33;;;11.00;99.90;;;;;;4990040;28;20637;-78
2022/02/07 14:28:37;;;;;;;6.10;1.50;;;11.10;99.90;;;;;;5003012;28;20234;-78
2022/02/07 14:31:03;;;;;;;10.18;2.00;;;11.10;99.90;;;;;;5004117;28;20245;-78
2022/02/07 14:33:29;;;;;;;5.78;1.90;;;11.10;99.90;;;;;;5000626;28;20179;-78
2022/02/07 14:35:55;;;;;;;7.82;1.98;;;11.10;99.90;;;;;;5002317;28;20746;-77
2022/02/07 14:38:21;;;;;;;9.60;2.90;;;11.10;99.90;;;;;;4967424;28;20285;-78
2022/02/07 14:40:47;;;;;;;6.68;2.22;;;11.10;99.90;;;;;;4995836;28;20193;-79
2022/02/07 14:43:21;;;;;;;7.07;2.33;;;11.10;99.90;;;;;;4988750;28;20178;-79
2022/02/07 14:46:06;;;;;;;6.90;2.10;;;11.10;99.90;;;;;;4982583;28;20277;-79
2022/02/07 14:48:35;;;;;;;10.43;2.65;;;11.10;99.90;;;;;;5000054;28;20182;-81
2022/02/07 14:51:06;;;;;;;8.20;2.25;;;11.10;99.90;;;;;;5002796;28;20236;-79
2022/02/07 14:53:33;;;;;;;7.70;2.17;;;11.10;99.90;;;;;;5006987;28;20540;-77
2022/02/07 14:55:59;;;;;;;7.00;2.53;;;11.10;99.90;;;;;;4999517;28;20217;-77
2022/02/07 14:58:25;;;;;;;6.10;2.17;;;11.10;99.90;;;;;;5001810;28;20228;-77
2022/02/07 15:00:53;;;;;;;6.53;2.10;;;11.10;99.90;;;;;;5004188;28;20584;-77
2022/02/07 15:03:20;;;;;;;7.00;2.40;;;11.10;99.90;;;;;;5008171;28;20671;-77
2022/02/07 15:05:47;;;;;;;5.15;2.30;;;11.10;99.90;;;;;;5011521;28;20198;-79
2022/02/07 15:08:13;;;;;;;3.80;1.90;;;11.10;99.90;;;;;;5012353;28;20278;-78
2022/02/07 15:10:39;;;;;;;3.70;1.70;;;11.00;99.90;;;;;;5006997;28;20202;-79
2022/02/07 15:13:06;;;;;;;10.70;2.73;;;11.00;99.90;;;;;;5010786;28;20214;-79
2022/02/07 15:15:35;;;;;;;5.95;2.70;;;11.00;99.90;;;;;;5013835;28;20244;-79
2022/02/07 15:18:05;;;;;;;7.95;3.53;;;10.90;99.90;;;;;;5010381;28;20221;-79
2022/02/07 15:20:32;;;;;;;9.35;3.95;;;10.90;99.90;;;;;;5002892;28;20205;-79
2022/02/07 15:22:58;;;;;;;5.60;2.30;;;10.90;99.90;;;;;;4989552;28;20857;-78
2022/02/07 15:25:30;;;;;;;6.73;1.87;;;10.90;99.90;;;;;;5003018;28;20214;-78
2022/02/07 15:27:59;;;;;;;3.75;1.33;;;10.90;99.90;;;;;;4986238;28;20215;-79
2022/02/07 15:30:25;;;;;;;5.85;2.60;;;10.80;99.90;;;;;;5008434;28;20178;-78
2022/02/07 15:32:53;;;;;;;4.43;1.98;;;10.90;99.90;;;;;;5003407;28;20182;-79
2022/02/07 15:35:19;;;;;;;4.70;1.65;;;10.90;99.90;;;;;;5009639;28;20761;-80
2022/02/07 15:37:45;;;;;;;3.33;1.77;;;10.80;99.90;;;;;;5004335;28;20181;-79